createdAt,value
2022-10-20T00:00:47.278Z,1.50
2022-10-20T00:03:50.581Z,1.90
2022-10-20T00:06:52.848Z,1.60
2022-10-20T00:09:55.296Z,1.40
2022-10-20T00:12:57.666Z,1.80
2022-10-20T00:16:00.447Z,2.10
2022-10-20T00:19:02.777Z,2.15
2022-10-20T00:22:05.033Z,2.13
2022-10-20T00:25:07.658Z,1.92
2022-10-20T00:28:10.026Z,2.10
2022-10-20T00:31:12.531Z,2.20
2022-10-20T00:34:14.839Z,2.00
2022-10-20T00:37:17.092Z,1.50
2022-10-20T00:40:19.534Z,1.42
2022-10-20T00:43:22.355Z,1.40
2022-10-20T00:46:37.806Z,2.03
2022-10-20T00:49:40.974Z,1.42
2022-10-20T00:52:45.844Z,1.67
2022-10-20T00:55:50.429Z,1.60
2022-10-20T00:58:52.819Z,1.80
2022-10-20T01:01:55.755Z,2.30
2022-10-20T01:04:58.622Z,1.90
2022-10-20T01:08:01.670Z,1.77
2022-10-20T01:11:14.499Z,1.55
2022-10-20T01:14:44.861Z,1.80
2022-10-20T01:18:48.450Z,1.88
2022-10-20T01:22:21.602Z,1.52
2022-10-20T01:26:01.444Z,1.73
2022-10-20T01:29:13.179Z,2.05
2022-10-20T01:32:40.447Z,2.10
2022-10-20T01:36:02.245Z,1.95
2022-10-20T01:39:10.883Z,1.88
2022-10-20T01:42:18.822Z,2.03
2022-10-20T01:45:24.157Z,2.03
2022-10-20T01:48:32.243Z,2.38
2022-10-20T01:51:34.646Z,1.65
2022-10-20T01:54:37.023Z,1.45
2022-10-20T01:57:45.307Z,2.63
2022-10-20T02:00:50.308Z,2.22
2022-10-20T02:04:03.213Z,1.85
2022-10-20T02:07:17.669Z,2.00
2022-10-20T02:10:27.714Z,2.30
2022-10-20T02:13:31.180Z,1.50
2022-10-20T02:16:38.856Z,1.65
2022-10-20T02:19:45.269Z,1.65
2022-10-20T02:22:48.647Z,2.60
2022-10-20T02:25:54.523Z,1.50
2022-10-20T02:29:01.179Z,1.80
2022-10-20T02:32:03.513Z,1.60
2022-10-20T02:35:13.233Z,1.52
2022-10-20T02:38:15.609Z,1.45
2022-10-20T02:41:17.820Z,1.50
2022-10-20T02:44:20.064Z,1.40
2022-10-20T02:47:22.428Z,1.63
2022-10-20T02:50:24.778Z,1.85
2022-10-20T02:53:27.030Z,1.90
2022-10-20T02:56:30.999Z,1.60
2022-10-20T02:59:33.961Z,1.37
2022-10-20T03:02:36.191Z,1.48
2022-10-20T03:05:44.358Z,2.45
2022-10-20T03:08:46.748Z,1.42
2022-10-20T03:11:49.203Z,1.50
2022-10-20T03:14:51.432Z,2.27
2022-10-20T03:17:53.782Z,1.50
2022-10-20T03:20:55.955Z,1.63
2022-10-20T03:23:58.359Z,1.33
2022-10-20T03:27:00.533Z,1.58
2022-10-20T03:30:03.296Z,1.20
2022-10-20T03:33:05.638Z,1.40
2022-10-20T03:36:08.398Z,1.63
2022-10-20T03:39:10.654Z,1.58
2022-10-20T03:42:12.931Z,1.45
2022-10-20T03:45:18.492Z,2.50
2022-10-20T03:48:21.072Z,1.60
2022-10-20T03:51:23.378Z,1.50
2022-10-20T03:54:25.646Z,1.65
2022-10-20T03:57:27.787Z,1.60
2022-10-20T04:00:30.278Z,1.17
2022-10-20T04:03:32.501Z,1.08
2022-10-20T04:06:34.725Z,1.40
2022-10-20T04:09:36.880Z,1.13
2022-10-20T04:12:39.300Z,1.58
2022-10-20T04:15:41.686Z,1.00
2022-10-20T04:18:44.057Z,2.72
2022-10-20T04:21:46.303Z,1.67
2022-10-20T04:25:22.629Z,1.77
2022-10-20T04:28:24.869Z,1.23
2022-10-20T04:31:27.335Z,0.97
2022-10-20T04:38:18.030Z,1.42
2022-10-20T04:41:22.606Z,1.33
2022-10-20T04:44:24.846Z,1.40
2022-10-20T04:47:32.140Z,1.57
2022-10-20T04:50:34.328Z,0.98
2022-10-20T04:53:42.692Z,1.20
2022-10-20T04:56:44.928Z,1.42
2022-10-20T04:59:47.107Z,1.65
2022-10-20T05:02:49.337Z,1.00
2022-10-20T05:05:51.542Z,1.35
2022-10-20T05:08:59.336Z,1.35
2022-10-20T05:12:01.754Z,1.27
2022-10-20T05:15:04.586Z,0.90
2022-10-20T05:18:06.889Z,1.87
2022-10-20T05:21:20.251Z,2.10
2022-10-20T05:24:22.941Z,2.00
2022-10-20T05:27:30.724Z,2.33
2022-10-20T05:30:39.660Z,1.15
2022-10-20T05:33:47.489Z,1.83
2022-10-20T05:37:01.589Z,1.92
2022-10-20T05:40:06.890Z,1.63
2022-10-20T05:43:09.265Z,2.25
2022-10-20T05:46:11.520Z,2.38
2022-10-20T05:49:16.680Z,2.17
2022-10-20T05:52:18.980Z,2.30
2022-10-20T05:55:30.421Z,1.55
2022-10-20T05:58:56.307Z,2.75
2022-10-20T06:02:01.597Z,1.75
2022-10-20T06:05:06.540Z,1.67
2022-10-20T06:08:08.792Z,2.22
2022-10-20T06:11:12.747Z,2.22
2022-10-20T06:14:36.571Z,4.28
2022-10-20T06:17:38.834Z,3.20
2022-10-20T06:20:41.209Z,2.77
2022-10-20T06:23:43.724Z,4.75
2022-10-20T06:26:46.496Z,3.15
2022-10-20T06:29:54.776Z,2.95
2022-10-20T06:33:03.186Z,3.15
2022-10-20T06:36:05.757Z,4.60
2022-10-20T06:39:10.844Z,2.33
2022-10-20T06:42:13.798Z,2.78
2022-10-20T06:45:57.847Z,2.58
2022-10-20T06:49:25.641Z,5.75
2022-10-20T06:53:45.734Z,3.87
2022-10-20T06:56:49.238Z,4.82
2022-10-20T06:59:53.051Z,4.70
2022-10-20T07:03:11.147Z,3.42
2022-10-20T07:07:10.741Z,4.15
2022-10-20T07:10:22.351Z,4.80
2022-10-20T07:14:02.148Z,2.45
2022-10-20T07:17:04.746Z,2.83
2022-10-20T07:23:50.555Z,4.10
2022-10-20T07:26:52.762Z,2.90
2022-10-20T07:30:01.313Z,3.97
2022-10-20T07:33:33.439Z,4.05
2022-10-20T07:37:27.260Z,5.05
2022-10-20T07:45:05.542Z,2.53
2022-10-20T07:48:41.584Z,3.13
2022-10-20T07:52:21.838Z,5.10
2022-10-20T07:56:24.683Z,7.95
2022-10-20T07:59:26.969Z,4.97
2022-10-20T08:02:32.111Z,3.37
2022-10-20T08:05:59.650Z,6.28
2022-10-20T08:09:02.170Z,3.78
2022-10-20T08:12:37.517Z,6.53
2022-10-20T08:15:40.198Z,6.55
2022-10-20T08:18:54.734Z,6.23
2022-10-20T08:21:57.192Z,5.70
2022-10-20T08:25:15.224Z,6.43
2022-10-20T08:28:21.129Z,4.15
2022-10-20T08:31:28.599Z,5.40
2022-10-20T08:34:31.113Z,5.30
2022-10-20T08:37:34.063Z,3.38
2022-10-20T08:40:42.067Z,4.28
2022-10-20T08:43:46.962Z,3.75
2022-10-20T08:46:59.457Z,5.35
2022-10-20T08:55:02.531Z,4.88
2022-10-20T08:58:32.054Z,3.08
2022-10-20T09:02:06.780Z,3.72
2022-10-20T09:05:16.728Z,7.13
2022-10-20T09:09:14.042Z,5.53
2022-10-20T09:12:33.536Z,4.00
2022-10-20T09:21:00.665Z,3.75
2022-10-20T09:29:58.446Z,5.90
2022-10-20T09:47:23.711Z,5.13
2022-10-20T09:54:02.736Z,8.07
2022-10-20T09:57:36.466Z,4.53
2022-10-20T10:00:49.232Z,5.13
2022-10-20T10:03:56.137Z,6.63
2022-10-20T10:06:58.391Z,5.73
2022-10-20T10:10:08.772Z,4.40
2022-10-20T10:13:25.125Z,4.38
2022-10-20T10:16:52.723Z,3.80
2022-10-20T10:20:13.330Z,3.13
2022-10-20T10:23:25.054Z,5.60
2022-10-20T10:26:52.270Z,4.28
2022-10-20T10:34:39.457Z,5.95
2022-10-20T10:37:44.802Z,5.57
2022-10-20T10:41:27.725Z,4.80
2022-10-20T10:44:34.958Z,7.32
2022-10-20T10:52:25.272Z,4.65
2022-10-20T10:56:03.854Z,5.03
2022-10-20T11:00:22.452Z,5.67
2022-10-20T11:03:43.641Z,3.63
2022-10-20T11:07:08.190Z,5.07
2022-10-20T11:14:54.359Z,4.80
2022-10-20T11:18:25.657Z,7.43
2022-10-20T11:21:36.842Z,6.65
2022-10-20T11:25:19.354Z,3.88
2022-10-20T11:28:45.813Z,3.63
2022-10-20T11:33:04.230Z,8.20
2022-10-20T11:36:16.701Z,5.17
2022-10-20T11:39:36.233Z,7.80
2022-10-20T11:47:38.883Z,4.95
2022-10-20T11:50:44.162Z,8.20
2022-10-20T11:53:59.227Z,3.17
2022-10-20T11:57:38.875Z,6.13
2022-10-20T12:01:00.406Z,5.47
2022-10-20T12:09:23.414Z,6.40
2022-10-20T12:25:30.228Z,5.43
2022-10-20T12:42:31.920Z,5.93
2022-10-20T12:46:31.645Z,7.57
2022-10-20T12:50:32.062Z,6.07
2022-10-20T13:13:06.214Z,6.97
2022-10-20T13:16:46.494Z,5.27
2022-10-20T13:29:24.635Z,4.43
2022-10-20T13:33:34.011Z,4.13
2022-10-20T13:36:50.150Z,6.40
2022-10-20T13:56:55.987Z,4.50
2022-10-20T14:00:30.654Z,2.97
2022-10-20T14:03:55.735Z,7.57
2022-10-20T14:26:17.062Z,5.93
2022-10-20T14:52:32.916Z,5.43
2022-10-20T15:28:39.823Z,3.13
2022-10-20T16:54:25.831Z,2.45
2022-10-20T17:25:26.436Z,1.63
